This is the latest recevied weather packets stored in our database for station/object N7FEQ. If no packets are shown the sender has not sent any weather packets the latest 10 day(s).
| Time | Temp. | Humidity | Pressure | Rain* | Wind** | Luminosity | Snow |
|---|---|---|---|---|---|---|---|
| 1777999833 | 10.56° C | 78% | 1013.8 hPa | 0 mm | - | - | - |
| 1777998630 | 10° C | 79% | 1013.8 hPa | 0 mm | - | - | - |
| 1777991824 | 7.78° C | 86% | 1012.7 hPa | 0 mm | - | - | - |
| 1777988736 | 7.22° C | 83% | 1012 hPa | 0 mm | - | - | - |
| 1777988125 | 7.22° C | 83% | 1011.9 hPa | 0 mm | - | - | - |
| 1777974628 | 6.67° C | 84% | 1011.9 hPa | 0 mm | - | - | - |
| 1777970917 | 6.67° C | 84% | 1012 hPa | 0 mm | - | - | - |
| 1777969676 | 6.67° C | 86% | 1012.4 hPa | 0 mm | - | - | - |
| 1777963486 | 6.67° C | 82% | 1012.4 hPa | 0 mm | - | - | - |
| 1777952956 | 6.11° C | 84% | 1012.3 hPa | 0.76 mm | - | - | - |
| 1777952335 | 6.11° C | 84% | 1012 hPa | 0.76 mm | - | - | - |
| 1777946757 | 6.67° C | 85% | 1011.4 hPa | 3.81 mm | - | - | - |
| 1777943676 | 8.33° C | 83% | 1012.6 hPa | 2.29 mm | - | - | - |
| 1777942447 | 8.89° C | 78% | 1011.8 hPa | 1.52 mm | - | - | - |
| 1777941223 | 10° C | 69% | 1011.3 hPa | 0 mm | - | - | - |
| 1777939395 | 11.67° C | 61% | 1010.6 hPa | 0 mm | - | - | - |
| 1777938781 | 12.22° C | 60% | 1010.6 hPa | 0 mm | - | - | - |
| 1777936329 | 12.22° C | 62% | 1010.5 hPa | 0 mm | - | - | - |
| 1777933870 | 12.22° C | 62% | 1011.1 hPa | 0 mm | - | - | - |
| 1777932641 | 13.33° C | 61% | 1011.1 hPa | 0 mm | - | - | - |
| 1777927066 | 11.67° C | 78% | 1012.1 hPa | 1.02 mm | - | - | - |
| 1777924595 | 12.22° C | 63% | 1012 hPa | 0 mm | - | - | - |
| 1777923976 | 12.78° C | 60% | 1012 hPa | 0 mm | - | - | - |
| 1777922735 | 12.78° C | 62% | 1012.3 hPa | 0 mm | - | - | - |
| 1777912856 | 9.44° C | 80% | 1012.6 hPa | 0.51 mm | - | - | - |
* Rain latest hour (hover to see other rain measurements)
** Current wind speed in m/s (hover to see current wind gust speed)